Time;durP1;ratioP1;P1;durP2;ratioP2;P2;SDS_P1;SDS_P2;PMS_P1;PMS_P2;Temp;Humidity;BMP_temperature;BMP_pressure;BME280_temperature;BME280_humidity;BME280_pressure;Samples;Min_cycle;Max_cycle;Signal;HPM_P1;HPM_P2
2024/01/09 00:05:28;;;;;;;19.9;11.1;;;;;;;-13.08;76.41;100361.66666667;;;;
2024/01/09 00:16:28;;;;;;;19.9;11.1;;;;;;;-13.58;76.34;100371.66666667;;;;
2024/01/09 00:26:28;;;;;;;19.9;11.1;;;;;;;-13.74;77.01;100373.33333333;;;;
2024/01/09 00:37:29;;;;;;;20.1;11.4;;;;;;;-14.05;77.61;100388.33333333;;;;
2024/01/09 00:47:29;;;;;;;20.1;11.4;;;;;;;-14.07;77.28;100398.33333333;;;;
2024/01/09 00:57:28;;;;;;;20.1;11.4;;;;;;;-14.13;76.13;100415;;;;
2024/01/09 01:07:28;;;;;;;19.3;12.6;;;;;;;-14.35;75.59;100408.33333333;;;;
2024/01/09 01:18:28;;;;;;;19.3;12.6;;;;;;;-14.53;76.46;100411.66666667;;;;
2024/01/09 01:28:28;;;;;;;19.6;12.2;;;;;;;-14.59;76.67;100406.66666667;;;;
2024/01/09 01:38:28;;;;;;;19.6;12.2;;;;;;;-14.66;76.36;100408.33333333;;;;
2024/01/09 01:49:28;;;;;;;19.6;12.2;;;;;;;-14.84;76.24;100421.66666667;;;;
2024/01/09 01:59:28;;;;;;;17.9;12.5;;;;;;;-14.84;76.17;100423.33333333;;;;
2024/01/09 02:10:28;;;;;;;17.9;12.5;;;;;;;-14.9;75.9;100418.33333333;;;;
2024/01/09 02:21:29;;;;;;;17.9;12.5;;;;;;;-15.01;75.65;100411.66666667;;;;
2024/01/09 02:31:28;;;;;;;19.6;9.3;;;;;;;-15.28;75.07;100418.33333333;;;;
2024/01/09 02:42:28;;;;;;;19.6;9.3;;;;;;;-15.42;75.34;100413.33333333;;;;
2024/01/09 02:52:28;;;;;;;19.6;9.3;;;;;;;-15.55;75.61;100415;;;;
2024/01/09 03:03:28;;;;;;;17.4;9.3;;;;;;;-15.68;77.06;100411.66666667;;;;
2024/01/09 03:13:28;;;;;;;17.4;9.3;;;;;;;-15.85;78.4;100410;;;;
2024/01/09 03:23:28;;;;;;;17.4;9.3;;;;;;;-15.89;78.19;100405;;;;
2024/01/09 03:33:28;;;;;;;18.3;10;;;;;;;-15.96;77.72;100396.66666667;;;;
2024/01/09 03:43:28;;;;;;;18.3;10;;;;;;;-15.93;77.35;100400;;;;
2024/01/09 03:53:28;;;;;;;18.3;10;;;;;;;-16.09;76.18;100406.66666667;;;;
2024/01/09 04:04:28;;;;;;;20;10.4;;;;;;;-16.21;76.48;100418.33333333;;;;
2024/01/09 04:15:28;;;;;;;20;10.4;;;;;;;-16.4;77.16;100430;;;;
2024/01/09 04:25:28;;;;;;;20;10.4;;;;;;;-16.31;77.61;100431.66666667;;;;
2024/01/09 04:36:28;;;;;;;18.8;13.3;;;;;;;-16.19;77.14;100436.66666667;;;;
2024/01/09 04:47:28;;;;;;;18.8;13.3;;;;;;;-16.38;76.17;100433.33333333;;;;
2024/01/09 04:57:28;;;;;;;23.8;13.2;;;;;;;-16.63;77.24;100436.66666667;;;;
2024/01/09 05:07:28;;;;;;;23.8;13.2;;;;;;;-16.65;77.52;100451.66666667;;;;
2024/01/09 05:18:28;;;;;;;23.8;13.2;;;;;;;-16.53;78.87;100450;;;;
2024/01/09 05:28:28;;;;;;;19.1;14;;;;;;;-16.21;79.18;100460;;;;
2024/01/09 05:39:28;;;;;;;19.1;14;;;;;;;-15.98;77.59;100480;;;;
2024/01/09 05:49:28;;;;;;;19.1;14;;;;;;;-15.99;76.84;100491.66666667;;;;
2024/01/09 05:59:28;;;;;;;19.3;12.5;;;;;;;-16.22;77.26;100493.33333333;;;;
2024/01/09 06:09:29;;;;;;;19.3;12.5;;;;;;;-16.24;76.62;100510;;;;
2024/01/09 06:20:28;;;;;;;19.3;12.5;;;;;;;-16.57;76.97;100515;;;;
2024/01/09 06:30:29;;;;;;;20.5;12.6;;;;;;;-16.54;77.64;100526.66666667;;;;
2024/01/09 06:41:29;;;;;;;20.5;12.6;;;;;;;-16.75;79.29;100536.66666667;;;;
2024/01/09 06:51:29;;;;;;;20.5;12.6;;;;;;;-16.52;79.39;100555;;;;
2024/01/09 07:01:29;;;;;;;22.9;13.7;;;;;;;-16.27;78.96;100570;;;;
2024/01/09 07:11:28;;;;;;;22.9;13.7;;;;;;;-16.38;80.1;100575;;;;
2024/01/09 07:21:28;;;;;;;22.9;13.7;;;;;;;-16.24;80.59;100578.33333333;;;;
2024/01/09 07:32:28;;;;;;;25.1;16.9;;;;;;;-15.77;79.19;100578.33333333;;;;
2024/01/09 07:42:28;;;;;;;25.1;16.9;;;;;;;-15.38;78.89;100588.33333333;;;;
2024/01/09 07:52:28;;;;;;;25.1;16.9;;;;;;;-15.05;78.47;100591.66666667;;;;
2024/01/09 08:02:28;;;;;;;38.3;19.5;;;;;;;-15.22;77.67;100593.33333333;;;;
2024/01/09 08:12:28;;;;;;;38.3;19.5;;;;;;;-15;77.5;100586.66666667;;;;
2024/01/09 08:22:28;;;;;;;38.3;19.5;;;;;;;-15.06;78.07;100588.33333333;;;;
2024/01/09 08:32:28;;;;;;;37.4;20.8;;;;;;;-14.99;78.04;100590;;;;
2024/01/09 08:43:28;;;;;;;37.4;20.8;;;;;;;-14.7;78.17;100576.66666667;;;;
2024/01/09 08:53:29;;;;;;;37.4;20.8;;;;;;;-14.14;76.15;100598.33333333;;;;
2024/01/09 08:58:25;;;;;;;36.6;19.6;;;;;;;-13.82;75.65;100600;;;;
2024/01/09 09:08:25;;;;;;;36.6;19.6;;;;;;;-13.46;76.23;100598.33333333;;;;
2024/01/09 09:19:25;;;;;;;36.6;19.6;;;;;;;-12.91;75.63;100591.66666667;;;;
2024/01/09 09:30:25;;;;;;;35.2;19.2;;;;;;;-12.8;75.06;100590;;;;
2024/01/09 09:40:25;;;;;;;35.2;19.2;;;;;;;-12.67;74.66;100583.33333333;;;;
2024/01/09 09:51:25;;;;;;;35.2;19.2;;;;;;;-12.17;75.6;100570;;;;
2024/01/09 10:01:25;;;;;;;44.7;25;;;;;;;-11.71;75.17;100563.33333333;;;;
2024/01/09 10:11:25;;;;;;;44.7;25;;;;;;;-11.34;73.63;100550;;;;
2024/01/09 10:22:28;;;;;;;44.7;25;;;;;;;-11.09;73.63;100536.66666667;;;;
2024/01/09 10:32:25;;;;;;;51.5;23.5;;;;;;;-11.5;74.01;100541.66666667;;;;
2024/01/09 10:43:25;;;;;;;51.5;23.5;;;;;;;-10.6;72.2;100530;;;;
2024/01/09 10:53:26;;;;;;;51.5;23.5;;;;;;;-10.33;73.25;100521.66666667;;;;
2024/01/09 11:04:25;;;;;;;40.5;23.2;;;;;;;-10.47;72.6;100516.66666667;;;;
2024/01/09 11:14:25;;;;;;;40.5;23.2;;;;;;;-10.2;71.56;100505;;;;
2024/01/09 11:24:27;;;;;;;41.5;26.7;;;;;;;-10.65;72.99;100483.33333333;;;;
2024/01/09 11:35:25;;;;;;;41.5;26.7;;;;;;;-9.45;70.8;100473.33333333;;;;
2024/01/09 11:45:25;;;;;;;41.5;26.7;;;;;;;-9.87;70.63;100470;;;;
2024/01/09 11:55:25;;;;;;;48.7;25.2;;;;;;;-9.71;71.27;100461.66666667;;;;
2024/01/09 12:05:25;;;;;;;48.7;25.2;;;;;;;-9.56;69.53;100461.66666667;;;;
2024/01/09 12:16:25;;;;;;;48.7;25.2;;;;;;;-9.71;70.28;100466.66666667;;;;
2024/01/09 12:27:25;;;;;;;40.5;22.3;;;;;;;-9.06;68.53;100465;;;;
2024/01/09 12:37:25;;;;;;;40.5;22.3;;;;;;;-9.63;68.89;100460;;;;
2024/01/09 12:48:25;;;;;;;40.5;22.3;;;;;;;-10.05;70.55;100460;;;;
2024/01/09 12:58:25;;;;;;;27.4;17;;;;;;;-9.53;69.19;100470;;;;
2024/01/09 13:09:25;;;;;;;27.4;17;;;;;;;-9.79;69.93;100470;;;;
2024/01/09 13:20:25;;;;;;;27.4;17;;;;;;;-10.18;71.03;100470;;;;
2024/01/09 13:31:25;;;;;;;37.8;22.3;;;;;;;-10.28;71.17;100468.33333333;;;;
2024/01/09 13:42:25;;;;;;;37.8;22.3;;;;;;;-10.37;71.63;100470;;;;
2024/01/09 13:53:25;;;;;;;37.8;22.3;;;;;;;-10.88;73.08;100456.66666667;;;;
2024/01/09 14:04:25;;;;;;;37.8;22.1;;;;;;;-11.03;74.74;100463.33333333;;;;
2024/01/09 14:14:25;;;;;;;37.8;22.1;;;;;;;-11.22;74.68;100470;;;;
2024/01/09 14:25:26;;;;;;;47.9;27.1;;;;;;;-11.75;76.24;100460;;;;
2024/01/09 14:35:25;;;;;;;47.9;27.1;;;;;;;-11.94;76.99;100455;;;;
2024/01/09 14:46:25;;;;;;;47.9;27.1;;;;;;;-12.31;77.56;100451.66666667;;;;
2024/01/09 14:56:25;;;;;;;47.3;24.3;;;;;;;-12.36;77.74;100455;;;;
2024/01/09 15:06:25;;;;;;;47.3;24.3;;;;;;;-12.65;78.11;100458.33333333;;;;
2024/01/09 15:16:25;;;;;;;47.3;24.3;;;;;;;-12.62;77.53;100458.33333333;;;;
2024/01/09 15:27:25;;;;;;;37.1;21.6;;;;;;;-12.72;77.45;100466.66666667;;;;
2024/01/09 15:37:25;;;;;;;37.1;21.6;;;;;;;-12.86;77.72;100471.66666667;;;;
2024/01/09 15:47:25;;;;;;;37.1;21.6;;;;;;;-12.82;77.47;100485;;;;
2024/01/09 15:58:25;;;;;;;49.6;27.3;;;;;;;-12.88;77.08;100498.33333333;;;;
2024/01/09 16:08:25;;;;;;;49.6;27.3;;;;;;;-13.07;77.14;100503.33333333;;;;
2024/01/09 16:18:25;;;;;;;49.6;27.3;;;;;;;-13.22;77.75;100503.33333333;;;;
2024/01/09 16:29:26;;;;;;;29.9;18.3;;;;;;;-13.39;78.13;100491.66666667;;;;
2024/01/09 16:40:25;;;;;;;29.9;18.3;;;;;;;-13.31;78.57;100495;;;;
2024/01/09 16:50:25;;;;;;;29.9;18.3;;;;;;;-13.38;78.13;100496.66666667;;;;
2024/01/09 17:01:26;;;;;;;41.8;24.8;;;;;;;-13.17;77.21;100491.66666667;;;;
2024/01/09 17:12:27;;;;;;;41.8;24.8;;;;;;;-13.22;76.74;100486.66666667;;;;
2024/01/09 17:23:25;;;;;;;36.6;23;;;;;;;-13.33;76.28;100483.33333333;;;;
2024/01/09 17:34:25;;;;;;;36.6;23;;;;;;;-13.2;75.49;100480;;;;
2024/01/09 17:45:25;;;;;;;36.6;23;;;;;;;-13.23;75.13;100488.33333333;;;;
2024/01/09 17:56:25;;;;;;;45;25.1;;;;;;;-14.05;76.05;100486.66666667;;;;
2024/01/09 18:07:25;;;;;;;45;25.1;;;;;;;-14.06;77.28;100483.33333333;;;;
2024/01/09 18:17:30;;;;;;;45;25.1;;;;;;;-14.12;77.59;100475;;;;
2024/01/09 18:28:25;;;;;;;33.2;20.6;;;;;;;-13.99;76.82;100475;;;;
2024/01/09 18:39:25;;;;;;;33.2;20.6;;;;;;;-13.9;76.43;100468.33333333;;;;
2024/01/09 18:50:25;;;;;;;33.2;20.6;;;;;;;-13.94;76.03;100466.66666667;;;;
2024/01/09 19:01:26;;;;;;;33.6;18.8;;;;;;;-13.82;75.02;100468.33333333;;;;
2024/01/09 19:11:29;;;;;;;33.6;18.8;;;;;;;-14.26;75.55;100466.66666667;;;;
2024/01/09 19:22:25;;;;;;;44.6;22.3;;;;;;;-14.09;75.9;100475;;;;
2024/01/09 19:32:27;;;;;;;44.6;22.3;;;;;;;-14.61;75.08;100475;;;;
2024/01/09 19:43:25;;;;;;;44.6;22.3;;;;;;;-14.41;75.01;100470;;;;
2024/01/09 19:53:25;;;;;;;39.8;24.8;;;;;;;-14.45;75.45;100478.33333333;;;;
2024/01/09 20:03:26;;;;;;;39.8;24.8;;;;;;;-14.64;75.03;100480;;;;
2024/01/09 20:14:26;;;;;;;39.8;24.8;;;;;;;-14.31;75.65;100480;;;;
2024/01/09 20:24:26;;;;;;;47.7;25.6;;;;;;;-14.11;74.99;100470;;;;
2024/01/09 20:35:26;;;;;;;47.7;25.6;;;;;;;-14.1;74.09;100471.66666667;;;;
2024/01/09 20:46:25;;;;;;;47.7;25.6;;;;;;;-14.18;74.44;100465;;;;
2024/01/09 20:56:25;;;;;;;41.6;23.8;;;;;;;-14.22;74.43;100480;;;;
2024/01/09 21:07:26;;;;;;;41.6;23.8;;;;;;;-14.32;73.84;100471.66666667;;;;
2024/01/09 21:18:25;;;;;;;41.6;23.8;;;;;;;-14.36;73.02;100468.33333333;;;;
2024/01/09 21:29:25;;;;;;;48.5;28.2;;;;;;;-14.55;72.82;100466.66666667;;;;
2024/01/09 21:40:25;;;;;;;48.5;28.2;;;;;;;-14.82;73.38;100461.66666667;;;;
2024/01/09 21:50:26;;;;;;;48.5;28.2;;;;;;;-14.83;74.34;100458.33333333;;;;
2024/01/09 22:00:25;;;;;;;50.7;28.3;;;;;;;-15.03;73;100451.66666667;;;;
2024/01/09 22:11:27;;;;;;;50.7;28.3;;;;;;;-14.79;73.23;100453.33333333;;;;
2024/01/09 22:22:25;;;;;;;45.8;26.4;;;;;;;-15.15;73.16;100456.66666667;;;;
2024/01/09 22:33:25;;;;;;;45.8;26.4;;;;;;;-15.03;73.57;100461.66666667;;;;
2024/01/09 22:44:25;;;;;;;45.8;26.4;;;;;;;-15;73.64;100446.66666667;;;;
2024/01/09 22:55:25;;;;;;;49.1;30.9;;;;;;;-15.31;75.42;100448.33333333;;;;
2024/01/09 23:06:25;;;;;;;49.1;30.9;;;;;;;-15;77.33;100441.66666667;;;;
2024/01/09 23:17:25;;;;;;;49.1;30.9;;;;;;;-14.85;76.88;100440;;;;
2024/01/09 23:27:25;;;;;;;35.7;21.9;;;;;;;-14.64;75.99;100431.66666667;;;;
2024/01/09 23:37:26;;;;;;;35.7;21.9;;;;;;;-14.56;75.68;100423.33333333;;;;
2024/01/09 23:47:25;;;;;;;35.7;21.9;;;;;;;-14.42;74.35;100408.33333333;;;;
2024/01/09 23:57:25;;;;;;;33.2;18.9;;;;;;;-14.37;74.71;100403.33333333;;;;
